sensor_id;sensor_type;location;lat;lon;timestamp;pressure;altitude;pressure_sealevel;temperature;humidity
18749;BME280;9503;53.560;10.246;2022-12-29T00:01:28;99453.59;;;9.13;100.00
18749;BME280;9503;53.560;10.246;2022-12-29T00:03:55;99454.63;;;9.45;100.00
18749;BME280;9503;53.560;10.246;2022-12-29T00:06:21;99468.16;;;9.41;100.00
18749;BME280;9503;53.560;10.246;2022-12-29T00:08:50;99476.34;;;9.05;100.00
18749;BME280;9503;53.560;10.246;2022-12-29T00:11:18;99465.97;;;9.26;100.00
18749;BME280;9503;53.560;10.246;2022-12-29T00:13:45;99480.00;;;9.39;100.00
18749;BME280;9503;53.560;10.246;2022-12-29T00:16:31;99468.00;;;9.36;100.00
18749;BME280;9503;53.560;10.246;2022-12-29T00:18:58;99464.25;;;9.52;100.00
18749;BME280;9503;53.560;10.246;2022-12-29T00:21:25;99456.59;;;9.54;100.00
18749;BME280;9503;53.560;10.246;2022-12-29T00:24:14;99451.94;;;9.15;100.00
18749;BME280;9503;53.560;10.246;2022-12-29T00:27:11;99447.44;;;9.60;100.00
18749;BME280;9503;53.560;10.246;2022-12-29T00:29:56;99450.34;;;9.71;100.00
18749;BME280;9503;53.560;10.246;2022-12-29T00:32:40;99443.50;;;9.70;100.00
18749;BME280;9503;53.560;10.246;2022-12-29T00:35:27;99442.66;;;9.71;100.00
18749;BME280;9503;53.560;10.246;2022-12-29T00:37:55;99444.50;;;9.77;100.00
18749;BME280;9503;53.560;10.246;2022-12-29T00:40:42;99426.94;;;9.87;100.00
18749;BME280;9503;53.560;10.246;2022-12-29T00:43:26;99420.13;;;9.59;100.00
18749;BME280;9503;53.560;10.246;2022-12-29T00:46:10;99409.94;;;9.89;100.00
18749;BME280;9503;53.560;10.246;2022-12-29T00:48:37;99414.78;;;9.80;100.00
18749;BME280;9503;53.560;10.246;2022-12-29T00:51:21;99423.19;;;9.76;100.00
18749;BME280;9503;53.560;10.246;2022-12-29T00:53:47;99417.81;;;9.68;100.00
18749;BME280;9503;53.560;10.246;2022-12-29T00:56:15;99425.50;;;9.97;100.00
18749;BME280;9503;53.560;10.246;2022-12-29T00:58:42;99429.38;;;10.13;100.00
18749;BME280;9503;53.560;10.246;2022-12-29T01:01:09;99424.00;;;10.04;100.00
18749;BME280;9503;53.560;10.246;2022-12-29T01:03:36;99428.22;;;10.02;100.00
18749;BME280;9503;53.560;10.246;2022-12-29T01:06:05;99423.91;;;10.01;100.00
18749;BME280;9503;53.560;10.246;2022-12-29T01:08:32;99409.06;;;10.19;100.00
18749;BME280;9503;53.560;10.246;2022-12-29T01:10:59;99413.53;;;10.24;100.00
18749;BME280;9503;53.560;10.246;2022-12-29T01:13:26;99409.72;;;10.12;100.00
18749;BME280;9503;53.560;10.246;2022-12-29T01:15:54;99414.28;;;10.22;100.00
18749;BME280;9503;53.560;10.246;2022-12-29T01:18:21;99407.63;;;10.27;100.00
18749;BME280;9503;53.560;10.246;2022-12-29T01:20:48;99399.91;;;10.26;100.00
18749;BME280;9503;53.560;10.246;2022-12-29T01:23:15;99410.53;;;10.11;100.00
18749;BME280;9503;53.560;10.246;2022-12-29T01:25:42;99404.28;;;10.30;100.00
18749;BME280;9503;53.560;10.246;2022-12-29T01:28:08;99401.66;;;10.28;100.00
18749;BME280;9503;53.560;10.246;2022-12-29T01:30:36;99397.31;;;10.24;100.00
18749;BME280;9503;53.560;10.246;2022-12-29T01:33:03;99396.44;;;10.23;100.00
18749;BME280;9503;53.560;10.246;2022-12-29T01:35:30;99384.41;;;10.52;100.00
18749;BME280;9503;53.560;10.246;2022-12-29T01:37:56;99389.31;;;10.43;100.00
18749;BME280;9503;53.560;10.246;2022-12-29T01:40:23;99373.44;;;10.27;100.00
18749;BME280;9503;53.560;10.246;2022-12-29T01:42:50;99376.34;;;10.39;100.00
18749;BME280;9503;53.560;10.246;2022-12-29T01:45:17;99371.00;;;10.30;100.00
18749;BME280;9503;53.560;10.246;2022-12-29T01:47:48;99373.22;;;10.19;100.00
18749;BME280;9503;53.560;10.246;2022-12-29T01:50:18;99369.34;;;10.32;100.00
18749;BME280;9503;53.560;10.246;2022-12-29T01:52:51;99362.34;;;10.58;100.00
18749;BME280;9503;53.560;10.246;2022-12-29T01:55:20;99366.91;;;10.36;100.00
18749;BME280;9503;53.560;10.246;2022-12-29T01:57:49;99367.84;;;10.40;100.00
18749;BME280;9503;53.560;10.246;2022-12-29T02:00:17;99368.72;;;10.40;100.00
18749;BME280;9503;53.560;10.246;2022-12-29T02:02:47;99356.69;;;10.38;100.00
18749;BME280;9503;53.560;10.246;2022-12-29T02:05:21;99359.09;;;10.32;100.00
18749;BME280;9503;53.560;10.246;2022-12-29T02:07:50;99364.25;;;10.03;100.00
18749;BME280;9503;53.560;10.246;2022-12-29T02:10:19;99355.94;;;10.42;100.00
18749;BME280;9503;53.560;10.246;2022-12-29T02:12:46;99354.75;;;10.29;100.00
18749;BME280;9503;53.560;10.246;2022-12-29T02:15:14;99359.47;;;10.45;100.00
18749;BME280;9503;53.560;10.246;2022-12-29T02:18:02;99366.75;;;10.30;100.00
18749;BME280;9503;53.560;10.246;2022-12-29T02:20:46;99361.63;;;10.30;100.00
18749;BME280;9503;53.560;10.246;2022-12-29T02:23:34;99351.53;;;10.36;100.00
18749;BME280;9503;53.560;10.246;2022-12-29T02:26:27;99350.19;;;10.20;100.00
18749;BME280;9503;53.560;10.246;2022-12-29T02:29:15;99343.06;;;10.39;100.00
18749;BME280;9503;53.560;10.246;2022-12-29T02:31:52;99348.69;;;10.59;100.00
18749;BME280;9503;53.560;10.246;2022-12-29T02:34:35;99339.78;;;10.44;100.00
18749;BME280;9503;53.560;10.246;2022-12-29T02:37:11;99346.81;;;10.51;100.00
18749;BME280;9503;53.560;10.246;2022-12-29T02:39:47;99321.69;;;10.38;100.00
18749;BME280;9503;53.560;10.246;2022-12-29T02:42:22;99329.56;;;10.46;100.00
18749;BME280;9503;53.560;10.246;2022-12-29T02:44:55;99323.81;;;10.55;100.00
18749;BME280;9503;53.560;10.246;2022-12-29T02:47:31;99320.13;;;10.43;100.00
18749;BME280;9503;53.560;10.246;2022-12-29T02:50:03;99322.97;;;10.56;100.00
18749;BME280;9503;53.560;10.246;2022-12-29T02:52:34;99323.78;;;10.53;100.00
18749;BME280;9503;53.560;10.246;2022-12-29T02:55:03;99322.06;;;10.52;100.00
18749;BME280;9503;53.560;10.246;2022-12-29T02:57:32;99316.72;;;10.44;100.00
18749;BME280;9503;53.560;10.246;2022-12-29T03:00:03;99313.44;;;10.50;100.00
18749;BME280;9503;53.560;10.246;2022-12-29T03:02:44;99296.84;;;10.69;100.00
18749;BME280;9503;53.560;10.246;2022-12-29T03:05:22;99299.03;;;10.54;100.00
18749;BME280;9503;53.560;10.246;2022-12-29T03:07:56;99294.13;;;10.63;100.00
18749;BME280;9503;53.560;10.246;2022-12-29T03:10:33;99309.31;;;10.55;100.00
18749;BME280;9503;53.560;10.246;2022-12-29T03:13:04;99297.44;;;10.59;100.00
18749;BME280;9503;53.560;10.246;2022-12-29T03:15:55;99300.97;;;10.64;100.00
18749;BME280;9503;53.560;10.246;2022-12-29T03:18:41;99292.16;;;10.52;100.00
18749;BME280;9503;53.560;10.246;2022-12-29T03:21:14;99284.47;;;10.52;100.00
18749;BME280;9503;53.560;10.246;2022-12-29T03:23:44;99287.25;;;10.62;100.00
18749;BME280;9503;53.560;10.246;2022-12-29T03:26:16;99282.97;;;10.61;100.00
18749;BME280;9503;53.560;10.246;2022-12-29T03:28:47;99279.38;;;10.54;100.00
18749;BME280;9503;53.560;10.246;2022-12-29T03:31:17;99270.19;;;10.62;100.00
18749;BME280;9503;53.560;10.246;2022-12-29T03:33:46;99271.16;;;10.67;100.00
18749;BME280;9503;53.560;10.246;2022-12-29T03:36:17;99255.44;;;10.54;100.00
18749;BME280;9503;53.560;10.246;2022-12-29T03:38:50;99261.00;;;10.72;100.00
18749;BME280;9503;53.560;10.246;2022-12-29T03:41:26;99255.88;;;10.72;100.00
18749;BME280;9503;53.560;10.246;2022-12-29T03:43:54;99255.50;;;10.57;100.00
18749;BME280;9503;53.560;10.246;2022-12-29T03:46:21;99241.06;;;10.59;100.00
18749;BME280;9503;53.560;10.246;2022-12-29T03:48:49;99254.84;;;10.64;100.00
18749;BME280;9503;53.560;10.246;2022-12-29T03:51:16;99248.09;;;10.67;100.00
18749;BME280;9503;53.560;10.246;2022-12-29T03:53:42;99250.75;;;10.72;100.00
18749;BME280;9503;53.560;10.246;2022-12-29T03:56:09;99246.56;;;10.74;100.00
18749;BME280;9503;53.560;10.246;2022-12-29T03:58:36;99244.81;;;10.73;100.00
18749;BME280;9503;53.560;10.246;2022-12-29T04:01:02;99243.63;;;10.59;100.00
18749;BME280;9503;53.560;10.246;2022-12-29T04:03:29;99241.31;;;10.69;100.00
18749;BME280;9503;53.560;10.246;2022-12-29T04:05:57;99239.00;;;10.80;100.00
18749;BME280;9503;53.560;10.246;2022-12-29T04:08:24;99234.59;;;10.74;100.00
18749;BME280;9503;53.560;10.246;2022-12-29T04:10:50;99233.28;;;10.56;100.00
18749;BME280;9503;53.560;10.246;2022-12-29T04:13:17;99225.59;;;10.56;100.00
18749;BME280;9503;53.560;10.246;2022-12-29T04:15:44;99226.53;;;10.58;100.00
18749;BME280;9503;53.560;10.246;2022-12-29T04:18:11;99232.41;;;10.54;100.00
18749;BME280;9503;53.560;10.246;2022-12-29T04:20:38;99229.16;;;10.61;100.00
18749;BME280;9503;53.560;10.246;2022-12-29T04:23:23;99221.81;;;10.76;100.00
18749;BME280;9503;53.560;10.246;2022-12-29T04:25:50;99220.78;;;10.68;100.00
18749;BME280;9503;53.560;10.246;2022-12-29T04:28:17;99225.19;;;10.73;100.00
18749;BME280;9503;53.560;10.246;2022-12-29T04:30:44;99225.38;;;10.83;100.00
18749;BME280;9503;53.560;10.246;2022-12-29T04:33:11;99223.63;;;10.80;100.00
18749;BME280;9503;53.560;10.246;2022-12-29T04:35:37;99222.69;;;10.78;100.00
18749;BME280;9503;53.560;10.246;2022-12-29T04:38:04;99211.69;;;10.81;100.00
18749;BME280;9503;53.560;10.246;2022-12-29T04:40:32;99203.19;;;10.85;100.00
18749;BME280;9503;53.560;10.246;2022-12-29T04:42:59;99195.53;;;10.86;100.00
18749;BME280;9503;53.560;10.246;2022-12-29T04:45:25;99189.47;;;10.81;100.00
18749;BME280;9503;53.560;10.246;2022-12-29T04:47:52;99191.19;;;10.82;100.00
18749;BME280;9503;53.560;10.246;2022-12-29T04:50:18;99202.16;;;10.76;100.00
18749;BME280;9503;53.560;10.246;2022-12-29T04:52:45;99190.38;;;10.85;100.00
18749;BME280;9503;53.560;10.246;2022-12-29T04:55:12;99187.78;;;10.83;100.00
18749;BME280;9503;53.560;10.246;2022-12-29T04:57:40;99185.28;;;10.86;100.00
18749;BME280;9503;53.560;10.246;2022-12-29T05:00:07;99176.66;;;10.83;100.00
18749;BME280;9503;53.560;10.246;2022-12-29T05:02:35;99176.09;;;10.94;100.00
18749;BME280;9503;53.560;10.246;2022-12-29T05:05:02;99182.97;;;10.97;100.00
18749;BME280;9503;53.560;10.246;2022-12-29T05:07:28;99181.47;;;11.08;100.00
18749;BME280;9503;53.560;10.246;2022-12-29T05:09:55;99184.03;;;11.06;100.00
18749;BME280;9503;53.560;10.246;2022-12-29T05:12:22;99176.97;;;10.96;100.00
18749;BME280;9503;53.560;10.246;2022-12-29T05:14:50;99185.69;;;11.04;100.00
18749;BME280;9503;53.560;10.246;2022-12-29T05:17:16;99179.75;;;11.07;100.00
18749;BME280;9503;53.560;10.246;2022-12-29T05:19:43;99191.66;;;11.03;100.00
18749;BME280;9503;53.560;10.246;2022-12-29T05:22:09;99183.19;;;11.07;100.00
18749;BME280;9503;53.560;10.246;2022-12-29T05:24:36;99194.13;;;10.99;100.00
18749;BME280;9503;53.560;10.246;2022-12-29T05:27:03;99194.09;;;10.97;100.00
18749;BME280;9503;53.560;10.246;2022-12-29T05:29:29;99189.16;;;11.08;100.00
18749;BME280;9503;53.560;10.246;2022-12-29T05:31:57;99183.31;;;11.14;100.00
18749;BME280;9503;53.560;10.246;2022-12-29T05:34:24;99189.16;;;11.06;100.00
18749;BME280;9503;53.560;10.246;2022-12-29T05:36:51;99188.25;;;11.04;100.00
18749;BME280;9503;53.560;10.246;2022-12-29T05:39:17;99184.19;;;11.14;100.00
18749;BME280;9503;53.560;10.246;2022-12-29T05:41:44;99184.16;;;11.13;100.00
18749;BME280;9503;53.560;10.246;2022-12-29T05:44:11;99179.88;;;11.13;100.00
18749;BME280;9503;53.560;10.246;2022-12-29T05:46:38;99190.50;;;10.89;100.00
18749;BME280;9503;53.560;10.246;2022-12-29T05:49:06;99182.00;;;10.92;100.00
18749;BME280;9503;53.560;10.246;2022-12-29T05:51:33;99190.00;;;11.07;100.00
18749;BME280;9503;53.560;10.246;2022-12-29T05:53:59;99186.50;;;11.02;100.00
18749;BME280;9503;53.560;10.246;2022-12-29T05:56:26;99187.41;;;11.05;100.00
18749;BME280;9503;53.560;10.246;2022-12-29T05:58:53;99199.50;;;11.10;100.00
18749;BME280;9503;53.560;10.246;2022-12-29T06:01:19;99189.06;;;11.02;100.00
18749;BME280;9503;53.560;10.246;2022-12-29T06:03:46;99189.09;;;11.03;100.00
18749;BME280;9503;53.560;10.246;2022-12-29T06:06:14;99191.72;;;11.08;100.00
18749;BME280;9503;53.560;10.246;2022-12-29T06:08:41;99193.56;;;11.14;100.00
18749;BME280;9503;53.560;10.246;2022-12-29T06:11:08;99197.53;;;10.99;100.00
18749;BME280;9503;53.560;10.246;2022-12-29T06:13:34;99189.09;;;11.03;100.00
18749;BME280;9503;53.560;10.246;2022-12-29T06:16:01;99186.13;;;11.24;100.00
18749;BME280;9503;53.560;10.246;2022-12-29T06:18:28;99183.44;;;11.20;100.00
18749;BME280;9503;53.560;10.246;2022-12-29T06:20:58;99202.59;;;10.95;100.00
18749;BME280;9503;53.560;10.246;2022-12-29T06:23:26;99199.38;;;11.05;100.00
18749;BME280;9503;53.560;10.246;2022-12-29T06:25:53;99208.53;;;10.94;100.00
18749;BME280;9503;53.560;10.246;2022-12-29T06:28:20;99201.09;;;11.06;100.00
18749;BME280;9503;53.560;10.246;2022-12-29T06:30:46;99178.63;;;11.35;100.00
18749;BME280;9503;53.560;10.246;2022-12-29T06:33:14;99196.22;;;11.17;100.00
18749;BME280;9503;53.560;10.246;2022-12-29T06:35:41;99192.50;;;11.02;100.00
18749;BME280;9503;53.560;10.246;2022-12-29T06:38:08;99190.88;;;11.07;100.00
18749;BME280;9503;53.560;10.246;2022-12-29T06:40:36;99197.88;;;11.16;100.00
18749;BME280;9503;53.560;10.246;2022-12-29T06:43:03;99204.31;;;11.38;100.00
18749;BME280;9503;53.560;10.246;2022-12-29T06:45:29;99202.25;;;11.19;100.00
18749;BME280;9503;53.560;10.246;2022-12-29T06:47:56;99193.13;;;11.33;100.00
18749;BME280;9503;53.560;10.246;2022-12-29T06:50:22;99183.59;;;11.27;100.00
18749;BME280;9503;53.560;10.246;2022-12-29T06:52:49;99187.28;;;10.99;100.00
18749;BME280;9503;53.560;10.246;2022-12-29T06:55:16;99197.69;;;11.05;100.00
18749;BME280;9503;53.560;10.246;2022-12-29T06:57:44;99185.44;;;10.94;100.00
18749;BME280;9503;53.560;10.246;2022-12-29T07:00:11;99191.66;;;11.03;100.00
18749;BME280;9503;53.560;10.246;2022-12-29T07:02:38;99185.75;;;11.07;100.00
18749;BME280;9503;53.560;10.246;2022-12-29T07:05:05;99190.31;;;11.22;100.00
18749;BME280;9503;53.560;10.246;2022-12-29T07:07:32;99181.16;;;11.33;100.00
18749;BME280;9503;53.560;10.246;2022-12-29T07:09:59;99194.88;;;11.35;100.00
18749;BME280;9503;53.560;10.246;2022-12-29T07:12:26;99183.56;;;11.24;100.00
18749;BME280;9503;53.560;10.246;2022-12-29T07:14:54;99188.03;;;11.36;100.00
18749;BME280;9503;53.560;10.246;2022-12-29T07:17:20;99187.19;;;11.37;100.00
18749;BME280;9503;53.560;10.246;2022-12-29T07:19:47;99182.91;;;11.36;100.00
18749;BME280;9503;53.560;10.246;2022-12-29T07:22:13;99182.88;;;11.34;100.00
18749;BME280;9503;53.560;10.246;2022-12-29T07:24:40;99182.94;;;11.38;100.00
18749;BME280;9503;53.560;10.246;2022-12-29T07:27:08;99178.75;;;11.41;100.00
18749;BME280;9503;53.560;10.246;2022-12-29T07:29:36;99185.59;;;11.41;100.00
18749;BME280;9503;53.560;10.246;2022-12-29T07:32:05;99189.63;;;11.29;100.00
18749;BME280;9503;53.560;10.246;2022-12-29T07:34:46;99182.63;;;11.22;100.00
18749;BME280;9503;53.560;10.246;2022-12-29T07:37:12;99191.41;;;11.32;100.00
18749;BME280;9503;53.560;10.246;2022-12-29T07:39:39;99194.00;;;11.33;100.00
18749;BME280;9503;53.560;10.246;2022-12-29T07:42:06;99204.31;;;11.37;100.00
18749;BME280;9503;53.560;10.246;2022-12-29T07:44:33;99211.97;;;11.35;100.00
18749;BME280;9503;53.560;10.246;2022-12-29T07:47:00;99217.94;;;11.34;100.00
18749;BME280;9503;53.560;10.246;2022-12-29T07:49:27;99207.88;;;11.02;100.00
18749;BME280;9503;53.560;10.246;2022-12-29T07:52:00;99217.91;;;10.93;100.00
18749;BME280;9503;53.560;10.246;2022-12-29T07:54:27;99219.78;;;11.00;100.00
18749;BME280;9503;53.560;10.246;2022-12-29T07:56:55;99219.09;;;10.70;100.00
18749;BME280;9503;53.560;10.246;2022-12-29T07:59:22;99218.75;;;10.55;100.00
18749;BME280;9503;53.560;10.246;2022-12-29T08:01:49;99224.56;;;10.85;100.00
18749;BME280;9503;53.560;10.246;2022-12-29T08:04:16;99212.53;;;10.81;100.00
18749;BME280;9503;53.560;10.246;2022-12-29T08:06:43;99242.84;;;10.63;100.00
18749;BME280;9503;53.560;10.246;2022-12-29T08:09:12;99227.63;;;10.69;100.00
18749;BME280;9503;53.560;10.246;2022-12-29T08:11:39;99223.47;;;10.72;100.00
18749;BME280;9503;53.560;10.246;2022-12-29T08:16:34;99222.84;;;10.84;100.00
18749;BME280;9503;53.560;10.246;2022-12-29T08:19:02;99232.91;;;10.40;100.00
18749;BME280;9503;53.560;10.246;2022-12-29T08:21:30;99232.00;;;10.73;100.00
18749;BME280;9503;53.560;10.246;2022-12-29T08:24:00;99232.41;;;10.91;100.00
18749;BME280;9503;53.560;10.246;2022-12-29T08:26:32;99238.31;;;10.87;100.00
18749;BME280;9503;53.560;10.246;2022-12-29T08:29:01;99231.66;;;10.95;100.00
18749;BME280;9503;53.560;10.246;2022-12-29T08:31:28;99240.97;;;10.92;100.00
18749;BME280;9503;53.560;10.246;2022-12-29T08:34:04;99244.81;;;10.73;100.00
18749;BME280;9503;53.560;10.246;2022-12-29T08:36:34;99247.25;;;10.68;100.00
18749;BME280;9503;53.560;10.246;2022-12-29T08:39:02;99253.19;;;10.66;100.00
18749;BME280;9503;53.560;10.246;2022-12-29T08:41:30;99256.53;;;10.63;100.00
18749;BME280;9503;53.560;10.246;2022-12-29T08:43:57;99266.75;;;10.62;100.00
18749;BME280;9503;53.560;10.246;2022-12-29T08:46:24;99266.47;;;10.86;100.00
18749;BME280;9503;53.560;10.246;2022-12-29T08:48:51;99263.34;;;10.63;100.00
18749;BME280;9503;53.560;10.246;2022-12-29T08:51:18;99255.13;;;10.76;100.00
18749;BME280;9503;53.560;10.246;2022-12-29T08:53:44;99252.41;;;10.68;100.00
18749;BME280;9503;53.560;10.246;2022-12-29T08:56:13;99258.75;;;10.84;100.00
18749;BME280;9503;53.560;10.246;2022-12-29T08:58:41;99267.75;;;10.67;100.00
18749;BME280;9503;53.560;10.246;2022-12-29T09:01:09;99260.97;;;11.08;100.00
18749;BME280;9503;53.560;10.246;2022-12-29T09:03:36;99267.63;;;10.98;100.00
18749;BME280;9503;53.560;10.246;2022-12-29T09:06:03;99264.84;;;10.89;100.00
18749;BME280;9503;53.560;10.246;2022-12-29T09:08:30;99273.09;;;10.77;100.00
18749;BME280;9503;53.560;10.246;2022-12-29T09:11:06;99273.97;;;10.78;100.00
18749;BME280;9503;53.560;10.246;2022-12-29T09:13:33;99272.50;;;10.88;100.00
18749;BME280;9503;53.560;10.246;2022-12-29T09:16:05;99282.09;;;10.96;100.00
18749;BME280;9503;53.560;10.246;2022-12-29T09:18:33;99289.59;;;10.87;100.00
18749;BME280;9503;53.560;10.246;2022-12-29T09:21:01;99280.06;;;10.82;100.00
18749;BME280;9503;53.560;10.246;2022-12-29T09:23:32;99275.94;;;10.52;100.00
18749;BME280;9503;53.560;10.246;2022-12-29T09:25:59;99280.81;;;10.79;100.00
18749;BME280;9503;53.560;10.246;2022-12-29T09:28:26;99292.50;;;11.02;100.00
18749;BME280;9503;53.560;10.246;2022-12-29T09:30:54;99292.97;;;10.86;100.00
18749;BME280;9503;53.560;10.246;2022-12-29T09:33:23;99288.13;;;10.98;100.00
18749;BME280;9503;53.560;10.246;2022-12-29T09:35:54;99304.03;;;10.84;100.00
18749;BME280;9503;53.560;10.246;2022-12-29T09:38:23;99296.97;;;11.10;100.00
18749;BME280;9503;53.560;10.246;2022-12-29T09:40:51;99302.28;;;11.19;100.00
18749;BME280;9503;53.560;10.246;2022-12-29T09:43:41;99301.66;;;11.29;100.00
18749;BME280;9503;53.560;10.246;2022-12-29T09:46:18;99298.03;;;11.21;100.00
18749;BME280;9503;53.560;10.246;2022-12-29T09:48:53;99307.22;;;10.73;100.00
18749;BME280;9503;53.560;10.246;2022-12-29T09:51:23;99311.88;;;10.90;100.00
18749;BME280;9503;53.560;10.246;2022-12-29T09:53:55;99302.13;;;11.11;98.98
18749;BME280;9503;53.560;10.246;2022-12-29T09:56:24;99307.06;;;11.03;98.03
18749;BME280;9503;53.560;10.246;2022-12-29T09:58:58;99291.00;;;11.11;96.59
18749;BME280;9503;53.560;10.246;2022-12-29T10:01:29;99304.53;;;11.05;96.65
18749;BME280;9503;53.560;10.246;2022-12-29T10:04:04;99306.84;;;11.32;95.68
18749;BME280;9503;53.560;10.246;2022-12-29T10:06:39;99318.13;;;11.39;95.69
18749;BME280;9503;53.560;10.246;2022-12-29T10:09:14;99300.28;;;11.07;95.49
18749;BME280;9503;53.560;10.246;2022-12-29T10:12:02;99309.25;;;11.24;95.44
18749;BME280;9503;53.560;10.246;2022-12-29T10:14:42;99310.47;;;11.42;94.89
18749;BME280;9503;53.560;10.246;2022-12-29T10:17:24;99308.63;;;11.75;94.13
18749;BME280;9503;53.560;10.246;2022-12-29T10:20:06;99299.53;;;11.50;92.97
18749;BME280;9503;53.560;10.246;2022-12-29T10:22:48;99307.41;;;11.58;92.35
18749;BME280;9503;53.560;10.246;2022-12-29T10:25:24;99311.84;;;11.67;92.18
18749;BME280;9503;53.560;10.246;2022-12-29T10:27:57;99305.72;;;11.60;92.42
18749;BME280;9503;53.560;10.246;2022-12-29T10:30:25;99305.78;;;11.61;92.32
18749;BME280;9503;53.560;10.246;2022-12-29T10:32:56;99304.69;;;11.52;91.88
18749;BME280;9503;53.560;10.246;2022-12-29T10:35:28;99304.47;;;11.80;91.70
18749;BME280;9503;53.560;10.246;2022-12-29T10:38:01;99308.25;;;11.57;91.60
18749;BME280;9503;53.560;10.246;2022-12-29T10:40:33;99316.66;;;11.51;91.37
18749;BME280;9503;53.560;10.246;2022-12-29T10:43:11;99307.47;;;11.61;90.47
18749;BME280;9503;53.560;10.246;2022-12-29T10:45:40;99307.75;;;11.75;90.57
18749;BME280;9503;53.560;10.246;2022-12-29T10:48:14;99311.41;;;11.45;89.94
18749;BME280;9503;53.560;10.246;2022-12-29T10:50:47;99303.69;;;11.45;89.37
18749;BME280;9503;53.560;10.246;2022-12-29T10:53:18;99315.66;;;11.45;89.29
18749;BME280;9503;53.560;10.246;2022-12-29T10:55:46;99310.31;;;11.34;89.54
18749;BME280;9503;53.560;10.246;2022-12-29T10:58:17;99311.50;;;11.50;88.81
18749;BME280;9503;53.560;10.246;2022-12-29T11:00:49;99318.22;;;11.43;89.33
18749;BME280;9503;53.560;10.246;2022-12-29T11:03:34;99312.91;;;11.35;89.54
18749;BME280;9503;53.560;10.246;2022-12-29T11:06:09;99306.66;;;11.63;89.55
18749;BME280;9503;53.560;10.246;2022-12-29T11:08:39;99307.41;;;11.97;88.90
18749;BME280;9503;53.560;10.246;2022-12-29T11:11:09;99299.41;;;11.44;89.45
18749;BME280;9503;53.560;10.246;2022-12-29T11:13:50;99307.19;;;11.88;88.61
18749;BME280;9503;53.560;10.246;2022-12-29T11:16:27;99286.41;;;11.77;88.78
18749;BME280;9503;53.560;10.246;2022-12-29T11:18:58;99312.56;;;11.99;88.84
18749;BME280;9503;53.560;10.246;2022-12-29T11:21:32;99308.31;;;12.01;87.19
18749;BME280;9503;53.560;10.246;2022-12-29T11:24:00;99319.72;;;12.15;86.51
18749;BME280;9503;53.560;10.246;2022-12-29T11:26:27;99306.19;;;11.81;86.13
18749;BME280;9503;53.560;10.246;2022-12-29T11:29:20;99315.03;;;11.96;85.71
18749;BME280;9503;53.560;10.246;2022-12-29T11:31:48;99285.84;;;11.50;85.83
18749;BME280;9503;53.560;10.246;2022-12-29T11:34:20;99306.66;;;11.62;86.50
18749;BME280;9503;53.560;10.246;2022-12-29T11:36:51;99307.06;;;11.41;86.36
18749;BME280;9503;53.560;10.246;2022-12-29T11:39:32;99306.16;;;11.39;87.13
18749;BME280;9503;53.560;10.246;2022-12-29T11:42:00;99312.72;;;11.67;86.32
18749;BME280;9503;53.560;10.246;2022-12-29T11:44:35;99308.13;;;11.52;86.05
18749;BME280;9503;53.560;10.246;2022-12-29T11:47:03;99311.91;;;11.68;85.48
18749;BME280;9503;53.560;10.246;2022-12-29T11:49:32;99304.41;;;11.79;85.87
18749;BME280;9503;53.560;10.246;2022-12-29T11:52:00;99311.38;;;11.83;85.78
18749;BME280;9503;53.560;10.246;2022-12-29T11:54:32;99302.66;;;11.76;85.08
18749;BME280;9503;53.560;10.246;2022-12-29T11:57:12;99317.25;;;11.79;85.19
18749;BME280;9503;53.560;10.246;2022-12-29T11:59:42;99310.63;;;11.48;86.15
18749;BME280;9503;53.560;10.246;2022-12-29T12:02:26;99322.06;;;12.04;85.55
18749;BME280;9503;53.560;10.246;2022-12-29T12:05:02;99315.69;;;11.84;85.72
18749;BME280;9503;53.560;10.246;2022-12-29T12:07:39;99317.69;;;11.59;87.40
18749;BME280;9503;53.560;10.246;2022-12-29T12:10:16;99324.13;;;11.39;88.17
18749;BME280;9503;53.560;10.246;2022-12-29T12:12:48;99324.22;;;11.45;87.91
18749;BME280;9503;53.560;10.246;2022-12-29T12:15:20;99322.81;;;11.19;90.11
18749;BME280;9503;53.560;10.246;2022-12-29T12:17:52;99330.63;;;11.62;89.32
18749;BME280;9503;53.560;10.246;2022-12-29T12:20:33;99312.88;;;11.34;90.86
18749;BME280;9503;53.560;10.246;2022-12-29T12:23:14;99319.69;;;11.32;91.11
18749;BME280;9503;53.560;10.246;2022-12-29T12:25:50;99327.38;;;11.32;91.08
18749;BME280;9503;53.560;10.246;2022-12-29T12:28:25;99321.09;;;11.19;90.90
18749;BME280;9503;53.560;10.246;2022-12-29T12:30:58;99317.66;;;11.56;90.75
18749;BME280;9503;53.560;10.246;2022-12-29T12:33:30;99321.88;;;11.54;90.53
18749;BME280;9503;53.560;10.246;2022-12-29T12:36:14;99310.81;;;11.18;90.08
18749;BME280;9503;53.560;10.246;2022-12-29T12:38:54;99312.25;;;11.44;89.18
18749;BME280;9503;53.560;10.246;2022-12-29T12:41:27;99309.66;;;11.44;90.05
18749;BME280;9503;53.560;10.246;2022-12-29T12:44:03;99309.53;;;11.38;90.49
18749;BME280;9503;53.560;10.246;2022-12-29T12:50:02;99309.06;;;11.54;88.25
18749;BME280;9503;53.560;10.246;2022-12-29T12:52:38;99312.66;;;11.64;87.94
18749;BME280;9503;53.560;10.246;2022-12-29T12:55:28;99318.19;;;11.82;86.85
18749;BME280;9503;53.560;10.246;2022-12-29T12:58:05;99303.72;;;11.86;85.82
18749;BME280;9503;53.560;10.246;2022-12-29T13:00:43;99317.84;;;11.67;85.95
18749;BME280;9503;53.560;10.246;2022-12-29T13:03:16;99321.97;;;11.59;86.15
18749;BME280;9503;53.560;10.246;2022-12-29T13:06:06;99330.44;;;11.53;87.05
18749;BME280;9503;53.560;10.246;2022-12-29T13:09:10;99318.53;;;11.58;87.99
18749;BME280;9503;53.560;10.246;2022-12-29T13:11:49;99306.50;;;11.54;87.51
18749;BME280;9503;53.560;10.246;2022-12-29T13:14:28;99332.41;;;11.67;86.35
18749;BME280;9503;53.560;10.246;2022-12-29T13:17:05;99314.38;;;11.63;85.35
18749;BME280;9503;53.560;10.246;2022-12-29T13:19:38;99299.84;;;11.64;84.35